Time;durP1;ratioP1;P1;durP2;ratioP2;P2;SDS_P1;SDS_P2;PMS_P1;PMS_P2;Temp;Humidity;BMP_temperature;BMP_pressure;BME280_temperature;BME280_humidity;BME280_pressure;Samples;Min_cycle;Max_cycle;Signal;HPM_P1;HPM_P2
2022/10/20 00:01:40;;;;;;;21.65;19.33;;;;;;;;;;6307645;22;20022;-89
2022/10/20 00:04:06;;;;;;;20.02;17.95;;;;;;;;;;6307305;22;20011;-81
2022/10/20 00:06:33;;;;;;;18.70;16.70;;;;;;;;;;6307666;22;20003;-81
2022/10/20 00:09:01;;;;;;;22.58;18.75;;;;;;;;;;6307558;22;20068;-85
2022/10/20 00:11:27;;;;;;;23.00;19.75;;;;;;;;;;6307490;22;20006;-85
2022/10/20 00:13:54;;;;;;;23.85;20.00;;;;;;;;;;6280146;22;20003;-82
2022/10/20 00:16:21;;;;;;;21.88;19.40;;;;;;;;;;6307256;22;20072;-84
2022/10/20 00:18:47;;;;;;;23.45;20.08;;;;;;;;;;6280139;22;20443;-87
2022/10/20 00:21:15;;;;;;;22.90;20.55;;;;;;;;;;6307295;22;20003;-83
2022/10/20 00:23:41;;;;;;;22.95;20.75;;;;;;;;;;6307406;22;19995;-86
2022/10/20 00:26:08;;;;;;;21.92;19.63;;;;;;;;;;6279891;22;20033;-82
2022/10/20 00:28:35;;;;;;;22.52;20.05;;;;;;;;;;6280063;22;20376;-86
2022/10/20 00:31:01;;;;;;;23.50;21.20;;;;;;;;;;6307467;22;20022;-84
2022/10/20 00:33:27;;;;;;;22.67;20.38;;;;;;;;;;6279958;22;20018;-80
2022/10/20 00:35:53;;;;;;;24.95;22.20;;;;;;;;;;6307145;22;20009;-83
2022/10/20 00:38:19;;;;;;;23.58;21.17;;;;;;;;;;6279923;22;20331;-80
2022/10/20 00:40:45;;;;;;;22.48;20.27;;;;;;;;;;6307305;22;20004;-86
2022/10/20 00:43:15;;;;;;;23.95;21.52;;;;;;;;;;6307443;22;20319;-86
2022/10/20 00:45:42;;;;;;;23.83;21.27;;;;;;;;;;6307255;22;20003;-80
2022/10/20 00:48:17;;;;;;;24.00;21.60;;;;;;;;;;6307252;22;20484;-83
2022/10/20 00:50:46;;;;;;;26.58;23.88;;;;;;;;;;6307440;22;20003;-89
2022/10/20 00:53:12;;;;;;;23.90;21.60;;;;;;;;;;6307225;22;20026;-88
2022/10/20 00:55:40;;;;;;;25.13;22.63;;;;;;;;;;6307053;22;20035;-84
2022/10/20 00:58:06;;;;;;;23.85;21.50;;;;;;;;;;6306515;22;19995;-86
2022/10/20 01:00:33;;;;;;;24.98;22.17;;;;;;;;;;6307225;22;20431;-85
2022/10/20 01:03:00;;;;;;;25.98;22.92;;;;;;;;;;6307234;22;20004;-88
2022/10/20 01:05:26;;;;;;;26.25;23.50;;;;;;;;;;6306823;22;20019;-86
2022/10/20 01:07:52;;;;;;;24.70;22.35;;;;;;;;;;6306938;22;19995;-84
2022/10/20 01:10:19;;;;;;;24.35;21.95;;;;;;;;;;6306885;22;20003;-87
2022/10/20 01:12:45;;;;;;;24.35;22.05;;;;;;;;;;6307076;22;19996;-81
2022/10/20 01:15:11;;;;;;;24.23;21.92;;;;;;;;;;6306685;22;20484;-83
2022/10/20 01:17:55;;;;;;;23.92;21.17;;;;;;;;;;6279815;22;20415;-85
2022/10/20 01:20:21;;;;;;;;;;;;;;;;;;6307375;22;19995;-82
2022/10/20 01:23:00;;;;;;;23.25;20.75;;;;;;;;;;6306731;22;19953;-90
2022/10/20 01:25:35;;;;;;;20.88;18.85;;;;;;;;;;6306908;22;20007;-82
2022/10/20 01:28:12;;;;;;;22.90;20.80;;;;;;;;;;6306790;22;20007;-84
2022/10/20 01:30:42;;;;;;;24.90;22.02;;;;;;;;;;6306578;22;20038;-81
2022/10/20 01:33:09;;;;;;;24.42;21.45;;;;;;;;;;6279523;22;20093;-82
2022/10/20 01:35:41;;;;;;;22.48;20.25;;;;;;;;;;6279144;22;20035;-80
2022/10/20 01:38:18;;;;;;;21.60;19.30;;;;;;;;;;6306702;22;20049;-83
2022/10/20 01:40:48;;;;;;;22.25;19.92;;;;;;;;;;6280006;22;20418;-86
2022/10/20 01:43:15;;;;;;;20.73;18.50;;;;;;;;;;6306667;22;20006;-83
2022/10/20 01:45:45;;;;;;;23.45;17.15;;;;;;;;;;6306910;22;20006;-83
2022/10/20 01:48:12;;;;;;;20.73;17.05;;;;;;;;;;6279581;22;20419;-87
2022/10/20 01:50:39;;;;;;;19.90;17.63;;;;;;;;;;6306549;22;20486;-86
2022/10/20 01:53:06;;;;;;;21.50;18.85;;;;;;;;;;6306698;22;20423;-85
2022/10/20 01:55:32;;;;;;;20.13;18.17;;;;;;;;;;6279365;22;20097;-81
2022/10/20 01:58:17;;;;;;;19.67;17.65;;;;;;;;;;6306707;22;19999;-84
2022/10/20 02:00:46;;;;;;;20.45;17.20;;;;;;;;;;6306628;22;20469;-85
2022/10/20 02:03:31;;;;;;;19.30;17.30;;;;;;;;;;6306454;22;20071;-85
2022/10/20 02:06:15;;;;;;;17.83;15.93;;;;;;;;;;6306479;22;20447;-81
2022/10/20 02:08:42;;;;;;;;;;;;;;;;;;6306773;22;19999;-84
2022/10/20 02:11:11;;;;;;;17.02;15.23;;;;;;;;;;6307955;22;20017;-82
2022/10/20 02:13:38;;;;;;;19.17;17.08;;;;;;;;;;6308158;22;20002;-81
2022/10/20 02:16:18;;;;;;;17.23;15.40;;;;;;;;;;6308541;22;20006;-85
2022/10/20 02:18:46;;;;;;;16.83;15.05;;;;;;;;;;6308630;22;20068;-85
2022/10/20 02:21:12;;;;;;;16.30;14.43;;;;;;;;;;6308531;22;20000;-86
2022/10/20 02:23:39;;;;;;;17.42;15.63;;;;;;;;;;6308296;22;20066;-82
2022/10/20 02:26:06;;;;;;;16.33;14.70;;;;;;;;;;6308553;22;20007;-83
2022/10/20 02:28:35;;;;;;;17.63;15.80;;;;;;;;;;6308220;22;19999;-83
2022/10/20 02:31:02;;;;;;;17.08;15.45;;;;;;;;;;6308359;22;20318;-81
2022/10/20 02:33:29;;;;;;;19.40;15.25;;;;;;;;;;6308236;22;19995;-84
2022/10/20 02:35:56;;;;;;;18.35;16.52;;;;;;;;;;6308262;22;20070;-80
2022/10/20 02:38:22;;;;;;;17.08;15.27;;;;;;;;;;6307991;22;20026;-84
2022/10/20 02:40:48;;;;;;;18.67;15.82;;;;;;;;;;6308535;22;19996;-84
2022/10/20 02:43:14;;;;;;;16.95;15.10;;;;;;;;;;6308408;22;19999;-83
2022/10/20 02:45:40;;;;;;;17.73;15.18;;;;;;;;;;6280842;22;20335;-83
2022/10/20 02:48:10;;;;;;;17.90;15.98;;;;;;;;;;6308319;22;19999;-81
2022/10/20 02:50:36;;;;;;;18.23;16.33;;;;;;;;;;6307948;22;20331;-84
2022/10/20 02:53:03;;;;;;;17.55;15.77;;;;;;;;;;6308289;22;20070;-86
2022/10/20 02:55:29;;;;;;;16.88;15.10;;;;;;;;;;6280536;22;20057;-80
2022/10/20 02:57:55;;;;;;;16.08;14.55;;;;;;;;;;6280812;22;20319;-85
2022/10/20 03:00:21;;;;;;;15.93;14.25;;;;;;;;;;6280745;22;20014;-83
2022/10/20 03:02:47;;;;;;;18.13;15.93;;;;;;;;;;6280728;22;20005;-81
2022/10/20 03:05:14;;;;;;;18.38;16.10;;;;;;;;;;6308010;22;20018;-81
2022/10/20 03:07:40;;;;;;;18.42;16.15;;;;;;;;;;6307921;22;20019;-81
2022/10/20 03:10:07;;;;;;;17.58;15.73;;;;;;;;;;6308134;22;20000;-84
2022/10/20 03:12:33;;;;;;;15.60;13.98;;;;;;;;;;6280841;22;20061;-83
2022/10/20 03:14:59;;;;;;;16.20;14.60;;;;;;;;;;6307964;22;20312;-82
2022/10/20 03:17:25;;;;;;;15.38;13.27;;;;;;;;;;6307864;22;19999;-82
2022/10/20 03:19:52;;;;;;;15.38;13.98;;;;;;;;;;6307986;22;20070;-87
2022/10/20 03:22:18;;;;;;;16.27;14.52;;;;;;;;;;6307853;22;20322;-84
2022/10/20 03:24:44;;;;;;;15.93;14.35;;;;;;;;;;6307845;22;20003;-85
2022/10/20 03:27:10;;;;;;;16.92;14.05;;;;;;;;;;6307918;22;20453;-79
2022/10/20 03:29:36;;;;;;;16.20;14.50;;;;;;;;;;6307581;22;20021;-83
2022/10/20 03:32:02;;;;;;;15.27;13.68;;;;;;;;;;6307869;22;20003;-84
2022/10/20 03:34:28;;;;;;;15.90;14.13;;;;;;;;;;6307799;22;20003;-87
2022/10/20 03:36:54;;;;;;;16.17;14.68;;;;;;;;;;6280518;22;19999;-85
2022/10/20 03:39:20;;;;;;;13.38;12.07;;;;;;;;;;6307741;22;20003;-82
2022/10/20 03:41:46;;;;;;;14.65;13.05;;;;;;;;;;6307652;22;20006;-80
2022/10/20 03:44:12;;;;;;;18.27;14.40;;;;;;;;;;6307863;22;20494;-85
2022/10/20 03:46:38;;;;;;;15.30;13.75;;;;;;;;;;6280420;22;20003;-84
2022/10/20 03:49:04;;;;;;;15.32;12.38;;;;;;;;;;6307130;22;19999;-80
2022/10/20 03:51:30;;;;;;;14.23;11.75;;;;;;;;;;6307947;22;20000;-87
2022/10/20 03:53:57;;;;;;;15.15;12.05;;;;;;;;;;6307268;22;19999;-82
2022/10/20 03:56:23;;;;;;;11.85;10.63;;;;;;;;;;6306805;22;20050;-83
2022/10/20 03:58:49;;;;;;;13.25;11.52;;;;;;;;;;6307686;22;20011;-84
2022/10/20 04:01:16;;;;;;;14.50;11.60;;;;;;;;;;6307712;22;19996;-81
2022/10/20 04:03:43;;;;;;;13.15;10.93;;;;;;;;;;6307412;22;20007;-83
2022/10/20 04:06:09;;;;;;;16.05;12.20;;;;;;;;;;6307002;22;19999;-82
2022/10/20 04:08:35;;;;;;;12.73;11.10;;;;;;;;;;6307529;22;20354;-80
2022/10/20 04:11:01;;;;;;;12.60;11.25;;;;;;;;;;6307108;22;19996;-84
2022/10/20 04:13:28;;;;;;;17.50;13.27;;;;;;;;;;6307224;22;19996;-80
2022/10/20 04:15:54;;;;;;;12.82;10.70;;;;;;;;;;6306556;22;20007;-84
2022/10/20 04:18:20;;;;;;;12.65;10.52;;;;;;;;;;6307346;22;20000;-80
2022/10/20 04:20:47;;;;;;;12.93;10.77;;;;;;;;;;6307127;22;19995;-78
2022/10/20 04:23:13;;;;;;;12.85;11.27;;;;;;;;;;6306679;22;20003;-79
2022/10/20 04:25:44;;;;;;;12.02;10.82;;;;;;;;;;6306538;22;20074;-83
2022/10/20 04:28:11;;;;;;;12.00;10.70;;;;;;;;;;6307329;22;20000;-80
2022/10/20 04:30:38;;;;;;;11.68;10.57;;;;;;;;;;6279855;22;20108;-84
2022/10/20 04:33:04;;;;;;;12.73;10.63;;;;;;;;;;6306655;22;20014;-85
2022/10/20 04:35:30;;;;;;;12.35;10.93;;;;;;;;;;6307133;22;20007;-84
2022/10/20 04:37:56;;;;;;;12.77;11.25;;;;;;;;;;6306821;22;20070;-80
2022/10/20 04:40:22;;;;;;;13.20;10.93;;;;;;;;;;6307186;22;20003;-81
2022/10/20 04:42:48;;;;;;;14.82;11.27;;;;;;;;;;6306912;22;20027;-81
2022/10/20 04:45:14;;;;;;;13.20;10.60;;;;;;;;;;6306946;22;20010;-80
2022/10/20 04:47:40;;;;;;;13.20;10.85;;;;;;;;;;6306150;22;20074;-83
2022/10/20 04:50:07;;;;;;;12.93;11.52;;;;;;;;;;6306674;22;20010;-84
2022/10/20 04:52:33;;;;;;;14.07;11.90;;;;;;;;;;6306663;22;20056;-85
2022/10/20 04:54:59;;;;;;;14.63;13.15;;;;;;;;;;6306337;22;20000;-83
2022/10/20 04:57:25;;;;;;;13.95;10.57;;;;;;;;;;6278940;22;19999;-85
2022/10/20 04:59:51;;;;;;;11.30;10.18;;;;;;;;;;6306667;22;20074;-84
2022/10/20 05:02:17;;;;;;;14.15;11.38;;;;;;;;;;6306593;22;19995;-84
2022/10/20 05:04:43;;;;;;;12.70;11.40;;;;;;;;;;6306657;22;20365;-85
2022/10/20 05:07:09;;;;;;;16.23;11.85;;;;;;;;;;6306176;22;20052;-82
2022/10/20 05:09:35;;;;;;;11.93;10.82;;;;;;;;;;6306619;22;19995;-82
2022/10/20 05:12:01;;;;;;;13.15;11.40;;;;;;;;;;6306441;22;20304;-88
2022/10/20 05:14:27;;;;;;;15.85;11.63;;;;;;;;;;6306276;22;20056;-86
2022/10/20 05:16:53;;;;;;;14.13;12.63;;;;;;;;;;6279713;22;20386;-84
2022/10/20 05:19:20;;;;;;;17.02;15.18;;;;;;;;;;6279140;22;20003;-85
2022/10/20 05:21:46;;;;;;;16.70;14.98;;;;;;;;;;6306548;22;19999;-84
2022/10/20 05:24:13;;;;;;;16.88;14.85;;;;;;;;;;6305984;22;20003;-86
2022/10/20 05:26:39;;;;;;;15.18;13.60;;;;;;;;;;6306277;22;20008;-83
2022/10/20 05:29:07;;;;;;;15.68;14.07;;;;;;;;;;6306205;22;20003;-81
2022/10/20 05:31:36;;;;;;;15.20;13.50;;;;;;;;;;6304859;22;20427;-82
2022/10/20 05:34:02;;;;;;;13.52;12.13;;;;;;;;;;6301337;22;20098;-83
2022/10/20 05:36:28;;;;;;;14.07;12.18;;;;;;;;;;6304606;22;20002;-83
2022/10/20 05:38:55;;;;;;;13.45;12.05;;;;;;;;;;6303940;22;20391;-79
2022/10/20 05:41:22;;;;;;;13.85;12.45;;;;;;;;;;6301359;22;20331;-86
2022/10/20 05:43:53;;;;;;;15.68;12.45;;;;;;;;;;6305016;22;20006;-78
2022/10/20 05:46:19;;;;;;;12.10;11.00;;;;;;;;;;6279764;22;20018;-84
2022/10/20 05:48:46;;;;;;;13.88;11.75;;;;;;;;;;6306604;22;20003;-82
2022/10/20 05:51:19;;;;;;;12.43;11.18;;;;;;;;;;6278501;22;20447;-85
2022/10/20 05:53:45;;;;;;;14.95;11.10;;;;;;;;;;6306859;22;20430;-82
2022/10/20 05:56:13;;;;;;;11.43;10.25;;;;;;;;;;6278463;22;20421;-82
2022/10/20 05:58:40;;;;;;;13.15;10.98;;;;;;;;;;6277759;22;20106;-85
2022/10/20 06:01:07;;;;;;;12.50;11.13;;;;;;;;;;6306067;22;20003;-83
2022/10/20 06:03:33;;;;;;;12.05;10.85;;;;;;;;;;6278558;22;20052;-82
2022/10/20 06:05:59;;;;;;;12.95;11.05;;;;;;;;;;6306838;22;20074;-83
2022/10/20 06:08:28;;;;;;;12.40;10.25;;;;;;;;;;6279707;22;20011;-81
2022/10/20 06:10:54;;;;;;;11.98;9.93;;;;;;;;;;6278790;22;20392;-85
2022/10/20 06:13:20;;;;;;;12.90;11.50;;;;;;;;;;6306807;22;20078;-83
2022/10/20 06:15:48;;;;;;;12.98;9.80;;;;;;;;;;6306067;22;20006;-82
2022/10/20 06:18:14;;;;;;;12.23;10.90;;;;;;;;;;6307341;22;20000;-82
2022/10/20 06:20:40;;;;;;;14.35;11.23;;;;;;;;;;6306372;22;19999;-82
2022/10/20 06:23:06;;;;;;;11.55;10.40;;;;;;;;;;6306573;22;19999;-86
2022/10/20 06:25:32;;;;;;;12.40;10.43;;;;;;;;;;6306214;22;20014;-79
2022/10/20 06:27:58;;;;;;;11.10;9.63;;;;;;;;;;6306720;22;20438;-82
2022/10/20 06:30:24;;;;;;;12.25;10.85;;;;;;;;;;6307084;22;20071;-79
2022/10/20 06:32:54;;;;;;;10.98;9.88;;;;;;;;;;6305694;22;20061;-81
2022/10/20 06:35:20;;;;;;;11.73;9.48;;;;;;;;;;6306687;22;20006;-82
2022/10/20 06:37:47;;;;;;;13.45;10.10;;;;;;;;;;6306670;22;19999;-82
2022/10/20 06:40:13;;;;;;;12.63;9.95;;;;;;;;;;6306195;22;20007;-84
2022/10/20 06:42:39;;;;;;;11.88;9.63;;;;;;;;;;6305970;22;19999;-85
2022/10/20 06:45:05;;;;;;;12.25;10.35;;;;;;;;;;6306123;22;20004;-80
2022/10/20 06:47:31;;;;;;;15.40;9.63;;;;;;;;;;6306724;22;20003;-77
2022/10/20 06:50:00;;;;;;;11.02;9.30;;;;;;;;;;6306369;22;20037;-82
2022/10/20 06:52:26;;;;;;;11.23;9.90;;;;;;;;;;6307015;22;20038;-82
2022/10/20 06:54:52;;;;;;;10.85;9.40;;;;;;;;;;6306200;22;20010;-78
2022/10/20 06:57:18;;;;;;;11.43;9.75;;;;;;;;;;6305889;22;20030;-84
2022/10/20 06:59:44;;;;;;;17.90;11.38;;;;;;;;;;6306177;22;20018;-80
2022/10/20 07:02:11;;;;;;;9.93;8.93;;;;;;;;;;6306562;22;20121;-82
2022/10/20 07:04:37;;;;;;;8.88;7.28;;;;;;;;;;6306811;22;20315;-86
2022/10/20 07:07:03;;;;;;;11.63;9.45;;;;;;;;;;6306187;22;20003;-85
2022/10/20 07:09:29;;;;;;;10.45;9.27;;;;;;;;;;6304704;22;19995;-80
2022/10/20 07:11:55;;;;;;;10.55;9.15;;;;;;;;;;6306629;22;20003;-87
2022/10/20 07:14:21;;;;;;;9.75;8.75;;;;;;;;;;6303761;22;20014;-85
2022/10/20 07:16:47;;;;;;;9.88;7.78;;;;;;;;;;6304222;22;20004;-87
2022/10/20 07:19:13;;;;;;;11.65;8.40;;;;;;;;;;6304629;22;20088;-83
2022/10/20 07:21:40;;;;;;;9.88;8.57;;;;;;;;;;6305608;22;20066;-86
2022/10/20 07:24:06;;;;;;;10.80;7.90;;;;;;;;;;6304453;22;20003;-83
2022/10/20 07:26:34;;;;;;;8.10;7.30;;;;;;;;;;6305282;22;20006;-89
2022/10/20 07:29:01;;;;;;;8.02;6.88;;;;;;;;;;6305692;22;19996;-81
2022/10/20 07:31:29;;;;;;;8.30;7.50;;;;;;;;;;6304546;22;20415;-83
2022/10/20 07:33:57;;;;;;;7.93;7.22;;;;;;;;;;6306222;22;20006;-82
2022/10/20 07:36:24;;;;;;;12.07;8.00;;;;;;;;;;6304714;22;20331;-85
2022/10/20 07:38:51;;;;;;;9.20;7.65;;;;;;;;;;6305711;22;20026;-79
2022/10/20 07:41:18;;;;;;;180.68;60.72;;;;;;;;;;6305826;22;20009;-84
2022/10/20 07:43:44;;;;;;;105.88;39.78;;;;;;;;;;6305865;22;20003;-84
2022/10/20 07:46:11;;;;;;;98.03;35.00;;;;;;;;;;6305732;22;20313;-88
2022/10/20 07:48:46;;;;;;;97.28;36.45;;;;;;;;;;6305948;22;20011;-88
2022/10/20 07:51:16;;;;;;;62.70;24.10;;;;;;;;;;6305022;22;20003;-88
2022/10/20 07:53:42;;;;;;;12.07;7.85;;;;;;;;;;6278804;22;19999;-81
2022/10/20 07:56:09;;;;;;;9.15;8.30;;;;;;;;;;6278630;22;20003;-82
2022/10/20 07:58:35;;;;;;;9.10;7.32;;;;;;;;;;6306199;22;20369;-80
2022/10/20 08:01:01;;;;;;;10.05;7.93;;;;;;;;;;6304488;22;20316;-86
2022/10/20 08:03:27;;;;;;;12.10;8.32;;;;;;;;;;6305189;22;20049;-82
2022/10/20 08:05:53;;;;;;;10.57;8.57;;;;;;;;;;6303870;22;20026;-84
2022/10/20 08:08:20;;;;;;;14.10;11.43;;;;;;;;;;6303569;22;20010;-79
2022/10/20 08:10:46;;;;;;;9.80;8.80;;;;;;;;;;6305625;22;20006;-79
2022/10/20 08:13:12;;;;;;;8.43;7.57;;;;;;;;;;6305801;22;20003;-81
2022/10/20 08:15:38;;;;;;;9.00;8.10;;;;;;;;;;6304095;22;20312;-83
2022/10/20 08:18:04;;;;;;;8.73;7.82;;;;;;;;;;6305836;22;20061;-80
2022/10/20 08:20:31;;;;;;;13.02;9.88;;;;;;;;;;6306069;22;20004;-88
2022/10/20 08:22:57;;;;;;;19.80;12.18;;;;;;;;;;6305709;22;19995;-81
2022/10/20 08:25:23;;;;;;;10.90;9.25;;;;;;;;;;6305392;22;20510;-83
2022/10/20 08:27:50;;;;;;;9.82;8.20;;;;;;;;;;6305566;22;20003;-84
2022/10/20 08:30:16;;;;;;;11.63;8.75;;;;;;;;;;6301729;22;20004;-79
2022/10/20 08:32:42;;;;;;;8.23;7.35;;;;;;;;;;6305247;22;20006;-82
2022/10/20 08:35:08;;;;;;;9.60;7.00;;;;;;;;;;6305257;22;20016;-85
2022/10/20 08:37:35;;;;;;;17.17;8.77;;;;;;;;;;6305467;22;20010;-77
2022/10/20 08:40:04;;;;;;;10.60;7.68;;;;;;;;;;6302858;22;19999;-78
2022/10/20 08:42:36;;;;;;;7.60;6.00;;;;;;;;;;6302315;22;19999;-83
2022/10/20 08:45:02;;;;;;;7.78;5.15;;;;;;;;;;6277775;22;20006;-81
2022/10/20 08:47:47;;;;;;;6.72;5.20;;;;;;;;;;6304883;22;20014;-88
2022/10/20 08:50:14;;;;;;;;;;;;;;;;;;6302817;22;20161;-82
2022/10/20 08:52:41;;;;;;;8.00;5.40;;;;;;;;;;6303560;22;19910;-78
2022/10/20 08:55:09;;;;;;;7.80;5.18;;;;;;;;;;6304216;22;20024;-83
2022/10/20 08:57:35;;;;;;;7.22;6.07;;;;;;;;;;6304413;22;20002;-81
2022/10/20 09:00:12;;;;;;;7.55;5.68;;;;;;;;;;6304994;22;20034;-82
2022/10/20 09:02:38;;;;;;;4.88;4.18;;;;;;;;;;6304981;22;19999;-71
2022/10/20 09:05:04;;;;;;;6.55;5.82;;;;;;;;;;6305048;22;20802;-83
2022/10/20 09:07:38;;;;;;;9.02;6.65;;;;;;;;;;6304275;22;20002;-81
2022/10/20 09:10:04;;;;;;;8.00;6.63;;;;;;;;;;6304386;22;20000;-80
2022/10/20 09:12:32;;;;;;;8.15;6.78;;;;;;;;;;6302281;22;20078;-78
2022/10/20 09:14:58;;;;;;;8.65;6.90;;;;;;;;;;6304347;22;20000;-84
2022/10/20 09:17:24;;;;;;;7.10;6.40;;;;;;;;;;6304921;22;20027;-83
2022/10/20 09:19:54;;;;;;;7.45;6.75;;;;;;;;;;6302728;22;20008;-81
2022/10/20 09:22:23;;;;;;;8.25;7.28;;;;;;;;;;6304051;22;19992;-83
2022/10/20 09:24:51;;;;;;;7.18;6.43;;;;;;;;;;6305045;22;20003;-78
2022/10/20 09:27:24;;;;;;;9.75;7.55;;;;;;;;;;6304295;22;20074;-80
2022/10/20 09:29:50;;;;;;;8.57;6.68;;;;;;;;;;6304650;22;20007;-80
2022/10/20 09:32:18;;;;;;;7.15;6.15;;;;;;;;;;6304773;22;20011;-80
2022/10/20 09:34:44;;;;;;;6.20;5.60;;;;;;;;;;6305923;22;20014;-82
2022/10/20 09:37:11;;;;;;;7.15;5.13;;;;;;;;;;6307062;22;20066;-77
2022/10/20 09:39:57;;;;;;;15.27;10.82;;;;;;;;;;6304446;22;20007;-81
2022/10/20 09:42:27;;;;;;;7.82;5.70;;;;;;;;;;6251025;22;20056;-84
2022/10/20 09:44:54;;;;;;;8.93;6.80;;;;;;;;;;6304937;22;20025;-81
2022/10/20 09:47:22;;;;;;;7.72;5.43;;;;;;;;;;6304810;22;20007;-80
2022/10/20 09:49:51;;;;;;;11.48;5.82;;;;;;;;;;6303313;22;20015;-81
2022/10/20 09:52:22;;;;;;;8.23;5.65;;;;;;;;;;6305378;22;20027;-82
2022/10/20 09:54:50;;;;;;;7.80;5.93;;;;;;;;;;6304608;22;19999;-80
2022/10/20 09:57:20;;;;;;;5.18;3.97;;;;;;;;;;6305382;22;20004;-86
2022/10/20 09:59:49;;;;;;;5.10;4.10;;;;;;;;;;6305422;22;20035;-81
2022/10/20 10:02:16;;;;;;;6.78;4.95;;;;;;;;;;6303061;22;19995;-79
2022/10/20 10:04:44;;;;;;;6.40;4.65;;;;;;;;;;6304229;22;20015;-83
2022/10/20 10:07:31;;;;;;;5.57;5.05;;;;;;;;;;6305284;22;20000;-84
2022/10/20 10:10:02;;;;;;;6.50;5.10;;;;;;;;;;6277107;22;20004;-80
2022/10/20 10:12:29;;;;;;;5.15;4.20;;;;;;;;;;6305114;22;20007;-80
2022/10/20 10:15:14;;;;;;;5.43;4.43;;;;;;;;;;6302843;22;19999;-84
2022/10/20 10:17:40;;;;;;;;;;;;;;;;;;6305061;22;19999;-83
2022/10/20 10:20:09;;;;;;;6.70;4.50;;;;;;;;;;6304802;22;19944;-82
2022/10/20 10:22:35;;;;;;;5.05;4.05;;;;;;;;;;6302208;22;19999;-80
2022/10/20 10:25:02;;;;;;;7.15;5.07;;;;;;;;;;6304548;22;20289;-84
2022/10/20 10:27:30;;;;;;;6.95;5.22;;;;;;;;;;6302381;22;20007;-84
2022/10/20 10:30:13;;;;;;;6.13;5.15;;;;;;;;;;6304301;22;20008;-85
2022/10/20 10:32:43;;;;;;;6.63;5.45;;;;;;;;;;6305454;22;20453;-82
2022/10/20 10:35:19;;;;;;;10.85;7.20;;;;;;;;;;6306705;22;19999;-83
2022/10/20 10:37:45;;;;;;;5.80;4.38;;;;;;;;;;6306272;22;20003;-81
2022/10/20 10:40:16;;;;;;;6.20;4.93;;;;;;;;;;6306716;22;20006;-85
2022/10/20 10:42:53;;;;;;;5.50;5.00;;;;;;;;;;6304706;22;20419;-81
2022/10/20 10:45:43;;;;;;;6.22;4.63;;;;;;;;;;6306587;22;20113;-81
2022/10/20 10:48:22;;;;;;;8.38;4.45;;;;;;;;;;6294206;22;20057;-83
2022/10/20 10:51:07;;;;;;;4.40;3.80;;;;;;;;;;6304929;22;20007;-84
2022/10/20 10:53:33;;;;;;;;;;;;;;;;;;6307850;22;20071;-81
2022/10/20 10:56:17;;;;;;;5.20;3.70;;;;;;;;;;6305969;22;20684;-83
2022/10/20 10:59:02;;;;;;;4.55;4.15;;;;;;;;;;6306176;22;20007;-84
2022/10/20 11:01:28;;;;;;;;;;;;;;;;;;6306966;22;19999;-82
2022/10/20 11:03:54;;;;;;;5.32;4.32;;;;;;;;;;6307157;22;19915;-81
2022/10/20 11:06:38;;;;;;;5.00;4.00;;;;;;;;;;6305016;22;19999;-79
2022/10/20 11:09:13;;;;;;;4.35;3.95;;;;;;;;;;6307006;22;20442;-84
2022/10/20 11:12:06;;;;;;;5.35;3.70;;;;;;;;;;6305235;22;20006;-83
2022/10/20 11:14:32;;;;;;;7.63;4.60;;;;;;;;;;6270749;22;20011;-77
2022/10/20 11:17:04;;;;;;;4.85;3.92;;;;;;;;;;6306876;22;19996;-85
2022/10/20 11:20:08;;;;;;;6.07;3.90;;;;;;;;;;6303926;22;20007;-82
2022/10/20 11:22:34;;;;;;;5.55;4.25;;;;;;;;;;6185625;23;20487;-80
2022/10/20 11:25:14;;;;;;;5.53;4.53;;;;;;;;;;6211477;23;20008;-78
2022/10/20 11:27:40;;;;;;;6.75;3.88;;;;;;;;;;6210884;23;20337;-84
2022/10/20 11:30:17;;;;;;;4.53;4.00;;;;;;;;;;6210492;23;20013;-81
2022/10/20 11:32:46;;;;;;;5.50;3.60;;;;;;;;;;6186331;23;20009;-80
2022/10/20 11:35:18;;;;;;;4.13;3.20;;;;;;;;;;6305761;22;20056;-84
2022/10/20 11:37:46;;;;;;;5.55;4.05;;;;;;;;;;6305528;22;20056;-82
2022/10/20 11:40:21;;;;;;;5.00;3.75;;;;;;;;;;6305151;22;20000;-81
2022/10/20 11:42:57;;;;;;;16.20;12.30;;;;;;;;;;6305543;22;20014;-82
2022/10/20 11:45:24;;;;;;;19.73;8.38;;;;;;;;;;6277562;22;20573;-84
2022/10/20 11:47:52;;;;;;;3.78;3.20;;;;;;;;;;6305562;22;20377;-69
2022/10/20 11:50:19;;;;;;;4.28;3.15;;;;;;;;;;6304867;22;20057;-69
2022/10/20 11:53:04;;;;;;;3.20;2.85;;;;;;;;;;6304832;22;20003;-71
2022/10/20 11:55:30;;;;;;;9.02;3.00;;;;;;;;;;6305264;22;20007;-69
2022/10/20 11:58:05;;;;;;;4.25;3.28;;;;;;;;;;6304106;22;20003;-70
2022/10/20 12:00:34;;;;;;;3.97;3.50;;;;;;;;;;6251920;22;20349;-80
2022/10/20 12:03:19;;;;;;;5.88;3.38;;;;;;;;;;6303990;22;19999;-79
2022/10/20 12:05:45;;;;;;;;;;;;;;;;;;6304561;22;20579;-82
2022/10/20 12:08:11;;;;;;;4.82;3.72;;;;;;;;;;6305918;22;19902;-81
2022/10/20 12:10:40;;;;;;;5.80;3.38;;;;;;;;;;6305159;22;20004;-79
2022/10/20 12:13:09;;;;;;;4.78;3.72;;;;;;;;;;6305812;22;20030;-76
2022/10/20 12:15:44;;;;;;;4.03;3.53;;;;;;;;;;6305244;22;20002;-82
2022/10/20 12:18:28;;;;;;;4.75;3.80;;;;;;;;;;6306049;22;20071;-82
2022/10/20 12:21:04;;;;;;;5.53;3.97;;;;;;;;;;6305222;22;20120;-82
2022/10/20 12:23:42;;;;;;;5.65;3.95;;;;;;;;;;6305855;22;20000;-78
2022/10/20 12:26:27;;;;;;;9.73;5.20;;;;;;;;;;6278375;22;20448;-83
2022/10/20 12:28:53;;;;;;;;;;;;;;;;;;6305778;22;20042;-81
2022/10/20 12:31:19;;;;;;;5.13;3.67;;;;;;;;;;6305620;22;19899;-85
2022/10/20 12:33:48;;;;;;;5.38;3.38;;;;;;;;;;6305544;22;20373;-79
2022/10/20 12:36:24;;;;;;;4.13;3.72;;;;;;;;;;6305793;22;20010;-82
2022/10/20 12:38:53;;;;;;;5.32;4.07;;;;;;;;;;6305291;22;20446;-84
2022/10/20 12:41:38;;;;;;;4.50;3.70;;;;;;;;;;6305711;22;20000;-82
2022/10/20 12:44:05;;;;;;;6.03;3.47;;;;;;;;;;6306027;22;20022;-82
2022/10/20 12:46:32;;;;;;;4.43;3.88;;;;;;;;;;6306300;22;19991;-80
2022/10/20 12:49:03;;;;;;;4.47;3.53;;;;;;;;;;6306072;22;20423;-79
2022/10/20 12:51:34;;;;;;;6.60;4.35;;;;;;;;;;6306191;22;19995;-78
2022/10/20 12:54:04;;;;;;;8.73;6.65;;;;;;;;;;6305452;22;20435;-78
2022/10/20 12:56:33;;;;;;;6.32;5.72;;;;;;;;;;6306040;22;19996;-82
2022/10/20 12:59:20;;;;;;;4.03;3.67;;;;;;;;;;6305340;22;20006;-79
2022/10/20 13:02:05;;;;;;;3.63;3.33;;;;;;;;;;6305655;22;20144;-81
2022/10/20 13:04:49;;;;;;;4.95;3.75;;;;;;;;;;6304631;22;20011;-80
2022/10/20 13:07:35;;;;;;;5.10;4.20;;;;;;;;;;6304679;22;20474;-79
2022/10/20 13:10:02;;;;;;;4.90;4.07;;;;;;;;;;6303791;22;20431;-79
2022/10/20 13:12:29;;;;;;;5.70;4.20;;;;;;;;;;6303732;22;20004;-78
2022/10/20 13:14:58;;;;;;;6.28;4.60;;;;;;;;;;6304177;22;19999;-82
2022/10/20 13:17:50;;;;;;;7.05;4.63;;;;;;;;;;6303992;22;19995;-79
2022/10/20 13:20:35;;;;;;;6.43;4.32;;;;;;;;;;6300056;22;20450;-83
2022/10/20 13:23:02;;;;;;;6.60;4.22;;;;;;;;;;6304846;22;20312;-80
2022/10/20 13:25:28;;;;;;;6.20;4.60;;;;;;;;;;6306225;22;20337;-83
2022/10/20 13:28:04;;;;;;;4.40;3.83;;;;;;;;;;6306131;22;20034;-86
2022/10/20 13:30:32;;;;;;;3.90;3.20;;;;;;;;;;6306137;22;19999;-82
2022/10/20 13:33:05;;;;;;;6.28;3.67;;;;;;;;;;6306209;22;20046;-82
2022/10/20 13:36:00;;;;;;;5.70;3.33;;;;;;;;;;6305795;22;20477;-83
2022/10/20 13:38:32;;;;;;;4.55;3.40;;;;;;;;;;6286273;22;20023;-81
2022/10/20 13:41:19;;;;;;;4.22;3.60;;;;;;;;;;6305783;22;20003;-79
2022/10/20 13:44:03;;;;;;;4.65;3.40;;;;;;;;;;6305468;22;20068;-82
2022/10/20 13:46:31;;;;;;;5.07;3.70;;;;;;;;;;6304984;22;20011;-82
2022/10/20 13:49:00;;;;;;;6.18;4.65;;;;;;;;;;6306004;22;20076;-80
2022/10/20 13:51:31;;;;;;;7.38;4.22;;;;;;;;;;6305623;22;20007;-80
2022/10/20 13:53:59;;;;;;;4.63;3.95;;;;;;;;;;6305831;22;20003;-83
2022/10/20 13:56:33;;;;;;;6.38;4.97;;;;;;;;;;6306286;22;20031;-80
2022/10/20 13:59:19;;;;;;;5.55;4.28;;;;;;;;;;6306431;22;20011;-80
2022/10/20 14:01:47;;;;;;;4.72;3.45;;;;;;;;;;6306197;22;20086;-86
2022/10/20 14:04:22;;;;;;;6.47;5.25;;;;;;;;;;6306062;22;20435;-82
2022/10/20 14:06:48;;;;;;;5.88;5.28;;;;;;;;;;6306300;22;20010;-85
2022/10/20 14:09:19;;;;;;;8.13;4.93;;;;;;;;;;6307797;22;20007;-80
2022/10/20 14:11:47;;;;;;;8.20;5.22;;;;;;;;;;6307900;22;20030;-81
2022/10/20 14:14:14;;;;;;;6.13;4.60;;;;;;;;;;6307914;22;20027;-78
2022/10/20 14:16:45;;;;;;;6.35;3.63;;;;;;;;;;6308266;22;20022;-80
2022/10/20 14:19:12;;;;;;;6.53;4.45;;;;;;;;;;6308104;22;20053;-83
2022/10/20 14:21:39;;;;;;;6.07;4.20;;;;;;;;;;6307857;22;20006;-83
2022/10/20 14:24:06;;;;;;;7.88;4.13;;;;;;;;;;6308190;22;20010;-80
2022/10/20 14:26:32;;;;;;;6.25;4.28;;;;;;;;;;6307966;22;20067;-82
2022/10/20 14:29:00;;;;;;;6.55;4.97;;;;;;;;;;6306785;22;19995;-80
2022/10/20 14:31:27;;;;;;;6.35;4.68;;;;;;;;;;6308129;22;19999;-81
2022/10/20 14:33:53;;;;;;;4.15;3.75;;;;;;;;;;6307873;22;20011;-85
2022/10/20 14:36:21;;;;;;;9.05;5.50;;;;;;;;;;6307939;22;20035;-80
2022/10/20 14:38:49;;;;;;;4.63;3.88;;;;;;;;;;6307800;22;20429;-79
2022/10/20 14:41:24;;;;;;;6.00;4.68;;;;;;;;;;6307890;22;20004;-77
2022/10/20 14:43:52;;;;;;;7.00;4.57;;;;;;;;;;6307835;22;20015;-80